Time;durP1;ratioP1;P1;durP2;ratioP2;P2;SDS_P1;SDS_P2;PMS_P1;PMS_P2;Temp;Humidity;BMP_temperature;BMP_pressure;BME280_temperature;BME280_humidity;BME280_pressure;Samples;Min_cycle;Max_cycle;Signal;HPM_P1;HPM_P2
2020/12/26 00:00:28;;;;;;;10.70;7.23;;;1.50;99.90;;;;;;5111049;28;20207;-63
2020/12/26 00:02:54;;;;;;;10.70;8.00;;;1.50;99.90;;;;;;5110745;28;20219;-62
2020/12/26 00:05:21;;;;;;;10.27;7.43;;;1.60;99.90;;;;;;5110151;28;20211;-62
2020/12/26 00:07:47;;;;;;;12.97;7.23;;;1.70;99.90;;;;;;5110601;28;20203;-62
2020/12/26 00:10:13;;;;;;;12.17;8.83;;;1.90;99.90;;;;;;5110936;28;20210;-62
2020/12/26 00:12:39;;;;;;;11.50;8.40;;;2.00;99.90;;;;;;5110668;28;20251;-64
2020/12/26 00:15:06;;;;;;;12.70;8.23;;;2.00;99.90;;;;;;5110477;28;20203;-63
2020/12/26 00:17:33;;;;;;;11.80;7.63;;;1.90;99.90;;;;;;5110701;28;20580;-61
2020/12/26 00:19:59;;;;;;;10.93;8.30;;;1.90;99.90;;;;;;5110443;28;20616;-62
2020/12/26 00:22:25;;;;;;;13.70;8.80;;;1.80;99.90;;;;;;5110425;28;20731;-62
2020/12/26 00:24:51;;;;;;;13.53;9.07;;;1.70;99.90;;;;;;5110630;28;20207;-61
2020/12/26 00:27:17;;;;;;;12.70;8.30;;;1.60;99.90;;;;;;5110782;28;20211;-62
2020/12/26 00:29:43;;;;;;;11.60;8.83;;;1.50;99.90;;;;;;5110498;28;20206;-62
2020/12/26 00:32:10;;;;;;;10.83;8.60;;;1.30;99.90;;;;;;5110967;28;20219;-61
2020/12/26 00:34:39;;;;;;;14.73;9.97;;;1.20;99.90;;;;;;5110427;28;20620;-61
2020/12/26 00:37:06;;;;;;;17.67;12.27;;;0.90;99.90;;;;;;5110983;28;20294;-61
2020/12/26 00:39:32;;;;;;;17.17;12.83;;;0.80;99.90;;;;;;5111561;28;20229;-64
2020/12/26 00:41:58;;;;;;;14.50;10.57;;;0.80;99.90;;;;;;5114613;28;20219;-62
2020/12/26 00:44:25;;;;;;;16.57;10.67;;;0.80;99.90;;;;;;5114139;28;20231;-62
2020/12/26 00:46:51;;;;;;;15.23;11.10;;;0.80;99.90;;;;;;5114476;28;20203;-62
2020/12/26 00:49:18;;;;;;;23.23;14.70;;;0.90;99.90;;;;;;5113921;28;20207;-61
2020/12/26 00:51:48;;;;;;;21.10;15.40;;;0.90;99.90;;;;;;5114348;28;20204;-61
2020/12/26 00:54:15;;;;;;;24.43;17.50;;;0.90;99.90;;;;;;5114184;28;20223;-65
2020/12/26 00:56:41;;;;;;;25.53;16.80;;;0.90;99.90;;;;;;5114320;28;20207;-64
2020/12/26 00:59:07;;;;;;;14.70;10.67;;;0.90;99.90;;;;;;5114053;28;20204;-64
2020/12/26 01:01:33;;;;;;;12.10;9.00;;;0.90;99.90;;;;;;5114013;28;20208;-64
2020/12/26 01:03:59;;;;;;;11.07;8.77;;;0.80;99.90;;;;;;5114101;28;20228;-64
2020/12/26 01:06:26;;;;;;;11.93;8.80;;;0.90;99.90;;;;;;5114738;28;20211;-64
2020/12/26 01:08:52;;;;;;;11.50;7.97;;;0.90;99.90;;;;;;5114056;28;20210;-65
2020/12/26 01:11:18;;;;;;;14.83;9.33;;;0.90;99.90;;;;;;5114160;28;20203;-65
2020/12/26 01:13:45;;;;;;;14.43;9.93;;;0.90;99.90;;;;;;5113405;28;20232;-63
2020/12/26 01:16:11;;;;;;;12.33;9.20;;;1.00;99.90;;;;;;5113948;28;20230;-64
2020/12/26 01:18:38;;;;;;;12.90;9.10;;;1.00;99.90;;;;;;5113559;28;20681;-63
2020/12/26 01:21:04;;;;;;;13.53;8.90;;;1.10;99.90;;;;;;5114358;28;20204;-63
2020/12/26 01:23:31;;;;;;;13.10;8.80;;;1.20;99.90;;;;;;5113587;28;20250;-63
2020/12/26 01:25:58;;;;;;;12.07;8.40;;;1.30;99.90;;;;;;5114234;28;20651;-63
2020/12/26 01:28:25;;;;;;;13.33;9.83;;;1.30;99.90;;;;;;5113644;28;20671;-63
2020/12/26 01:30:51;;;;;;;11.73;8.83;;;1.40;99.90;;;;;;5114080;28;20329;-63
2020/12/26 01:33:17;;;;;;;13.20;8.40;;;1.40;99.90;;;;;;5114062;28;20227;-63
2020/12/26 01:35:44;;;;;;;10.43;8.03;;;1.40;99.90;;;;;;5113579;28;20211;-63
2020/12/26 01:38:10;;;;;;;11.07;7.80;;;1.30;99.90;;;;;;5113336;28;20608;-63
2020/12/26 01:40:37;;;;;;;10.53;8.20;;;1.30;99.90;;;;;;5113709;28;20212;-63
2020/12/26 01:43:04;;;;;;;10.00;7.27;;;1.20;99.90;;;;;;5113158;28;20227;-64
2020/12/26 01:45:30;;;;;;;15.60;9.50;;;1.20;99.90;;;;;;5113788;28;20207;-64
2020/12/26 01:47:57;;;;;;;10.90;8.07;;;1.20;99.90;;;;;;5113294;28;20216;-64
2020/12/26 01:50:23;;;;;;;12.97;7.87;;;1.40;99.90;;;;;;5112950;28;20237;-64
2020/12/26 01:52:51;;;;;;;15.33;8.87;;;1.60;99.90;;;;;;5113307;28;20228;-65
2020/12/26 01:55:17;;;;;;;10.97;8.70;;;1.70;99.90;;;;;;5113108;28;20206;-65
2020/12/26 01:57:51;;;;;;;12.30;8.60;;;1.80;99.90;;;;;;5112881;28;20577;-65
2020/12/26 02:00:18;;;;;;;10.73;8.00;;;1.80;99.90;;;;;;5113294;28;20200;-64
2020/12/26 02:02:44;;;;;;;13.90;9.30;;;1.90;99.90;;;;;;5113068;28;20219;-63
2020/12/26 02:05:10;;;;;;;12.23;8.47;;;2.00;99.90;;;;;;5113071;28;20211;-65
2020/12/26 02:07:37;;;;;;;11.10;8.27;;;2.10;99.90;;;;;;5113270;28;20215;-64
2020/12/26 02:10:04;;;;;;;11.87;8.23;;;2.10;99.90;;;;;;5113283;28;20207;-65
2020/12/26 02:12:30;;;;;;;9.53;7.83;;;2.20;99.90;;;;;;5112720;28;20235;-66
2020/12/26 02:14:57;;;;;;;11.60;8.83;;;2.20;99.90;;;;;;5112475;28;20218;-64
2020/12/26 02:17:25;;;;;;;9.00;7.97;;;2.30;99.90;;;;;;5113148;28;20206;-63
2020/12/26 02:19:51;;;;;;;10.37;8.23;;;2.30;99.90;;;;;;5112558;28;20196;-63
2020/12/26 02:22:17;;;;;;;9.57;7.57;;;2.30;99.90;;;;;;5112709;28;20276;-65
2020/12/26 02:24:44;;;;;;;9.67;7.47;;;2.40;99.90;;;;;;5112345;28;20300;-65
2020/12/26 02:27:10;;;;;;;11.63;8.20;;;2.50;99.90;;;;;;5112613;28;20204;-65
2020/12/26 02:29:37;;;;;;;12.10;9.13;;;2.60;99.90;;;;;;5112304;28;20215;-64
2020/12/26 02:32:04;;;;;;;11.47;8.80;;;2.70;99.90;;;;;;5112474;28;20220;-64
2020/12/26 02:34:30;;;;;;;12.27;8.80;;;2.80;99.90;;;;;;5112157;28;20603;-64
2020/12/26 02:36:56;;;;;;;11.50;8.63;;;2.80;99.90;;;;;;5112311;28;20210;-65
2020/12/26 02:39:22;;;;;;;10.63;8.17;;;2.80;99.90;;;;;;5112203;28;20203;-64
2020/12/26 02:41:49;;;;;;;9.37;8.00;;;2.80;99.90;;;;;;5112343;28;20686;-64
2020/12/26 02:44:16;;;;;;;11.37;8.43;;;2.80;99.90;;;;;;5112219;28;20227;-64
2020/12/26 02:46:42;;;;;;;9.77;8.17;;;2.80;99.90;;;;;;5112537;28;20210;-65
2020/12/26 02:49:08;;;;;;;11.17;8.27;;;2.80;99.90;;;;;;5112306;28;20200;-64
2020/12/26 02:51:34;;;;;;;13.20;9.27;;;2.70;99.90;;;;;;5112404;28;20336;-64
2020/12/26 02:54:00;;;;;;;10.27;8.43;;;2.70;99.90;;;;;;5111752;28;20208;-65
2020/12/26 02:56:27;;;;;;;14.80;8.50;;;2.70;99.90;;;;;;5111951;28;20210;-64
2020/12/26 02:58:54;;;;;;;12.10;9.27;;;2.70;99.90;;;;;;5111663;28;20583;-64
2020/12/26 03:01:20;;;;;;;11.77;8.90;;;2.70;99.90;;;;;;5112365;28;20207;-65
2020/12/26 03:03:46;;;;;;;10.00;8.43;;;2.70;99.90;;;;;;5111055;28;20231;-65
2020/12/26 03:06:12;;;;;;;10.60;8.10;;;2.50;99.90;;;;;;5111695;28;20344;-64
2020/12/26 03:08:38;;;;;;;11.17;8.47;;;2.40;99.90;;;;;;5111192;28;20207;-65
2020/12/26 03:11:05;;;;;;;10.03;8.00;;;2.30;99.90;;;;;;5111778;28;20225;-65
2020/12/26 03:13:31;;;;;;;10.27;8.20;;;2.40;99.90;;;;;;5134804;22;20230;-60
2020/12/26 03:15:59;;;;;;;10.70;8.27;;;2.50;99.90;;;;;;5115504;28;20246;-59
2020/12/26 03:18:25;;;;;;;11.47;9.20;;;2.60;99.90;;;;;;5114321;28;20204;-61
2020/12/26 03:20:51;;;;;;;12.70;8.43;;;2.70;99.90;;;;;;5113700;28;20210;-60
2020/12/26 03:23:18;;;;;;;13.00;8.37;;;2.80;99.90;;;;;;5114662;28;20324;-59
2020/12/26 03:25:44;;;;;;;11.57;8.50;;;2.90;99.90;;;;;;5113630;28;20575;-59
2020/12/26 03:28:10;;;;;;;10.60;8.40;;;3.00;99.90;;;;;;5113511;28;20232;-60
2020/12/26 03:30:36;;;;;;;11.67;8.77;;;3.10;99.90;;;;;;5117954;28;20207;-60
2020/12/26 03:33:03;;;;;;;10.90;8.83;;;3.20;99.90;;;;;;5114228;28;20226;-61
2020/12/26 03:35:29;;;;;;;10.73;8.90;;;3.10;99.90;;;;;;5115338;28;20629;-62
2020/12/26 03:37:56;;;;;;;9.80;7.93;;;3.10;99.90;;;;;;5116165;28;20204;-61
2020/12/26 03:40:22;;;;;;;12.13;8.10;;;3.10;99.90;;;;;;5117078;28;20679;-61
2020/12/26 03:42:48;;;;;;;9.70;7.67;;;3.10;99.90;;;;;;5116816;28;20731;-61
2020/12/26 03:45:14;;;;;;;11.97;8.70;;;3.10;99.90;;;;;;5115910;28;20204;-61
2020/12/26 03:47:40;;;;;;;10.33;8.13;;;3.10;99.90;;;;;;5116325;28;20662;-61
2020/12/26 03:50:08;;;;;;;11.13;8.03;;;3.10;99.90;;;;;;5116527;28;20226;-61
2020/12/26 03:52:34;;;;;;;13.23;8.47;;;3.10;99.90;;;;;;5113740;28;20594;-62
2020/12/26 03:55:00;;;;;;;10.30;8.23;;;3.10;99.90;;;;;;5113398;28;20258;-62
2020/12/26 03:57:26;;;;;;;14.97;8.97;;;3.10;99.90;;;;;;5113342;28;20230;-61
2020/12/26 03:59:52;;;;;;;10.63;8.03;;;3.10;99.90;;;;;;5112863;28;20208;-61
2020/12/26 04:02:18;;;;;;;10.50;9.17;;;3.10;99.90;;;;;;5112704;28;20235;-62
2020/12/26 04:04:44;;;;;;;11.30;8.80;;;3.10;99.90;;;;;;5111539;28;20219;-61
2020/12/26 04:07:11;;;;;;;11.40;8.90;;;3.10;99.90;;;;;;5111951;28;20204;-61
2020/12/26 04:09:38;;;;;;;12.07;9.20;;;3.10;99.90;;;;;;5111692;28;20200;-62
2020/12/26 04:12:04;;;;;;;10.63;8.87;;;3.10;99.90;;;;;;5111533;28;20215;-62
2020/12/26 04:14:30;;;;;;;11.47;8.67;;;3.10;99.90;;;;;;5114149;28;20211;-61
2020/12/26 04:16:57;;;;;;;12.00;9.40;;;3.10;99.90;;;;;;5116136;28;20211;-62
2020/12/26 04:19:23;;;;;;;14.17;9.57;;;3.20;99.90;;;;;;5115467;28;20214;-62
2020/12/26 04:21:50;;;;;;;10.53;9.07;;;3.20;99.90;;;;;;5115744;28;20207;-61
2020/12/26 04:24:17;;;;;;;12.63;9.20;;;3.20;99.90;;;;;;5115352;28;20707;-61
2020/12/26 04:26:43;;;;;;;13.17;9.13;;;3.20;99.90;;;;;;5116005;28;20203;-62
2020/12/26 04:29:09;;;;;;;12.53;8.57;;;3.20;99.90;;;;;;5115613;28;20256;-61
2020/12/26 04:31:35;;;;;;;11.63;8.93;;;3.20;99.90;;;;;;5116046;28;20667;-61
2020/12/26 04:34:02;;;;;;;11.57;8.53;;;3.20;99.90;;;;;;5115417;28;20227;-62
2020/12/26 04:36:28;;;;;;;10.50;8.10;;;3.10;99.90;;;;;;5116087;28;20204;-61
2020/12/26 04:38:54;;;;;;;10.47;8.00;;;3.10;99.90;;;;;;5115679;28;20292;-61
2020/12/26 04:41:22;;;;;;;10.37;8.30;;;3.00;99.90;;;;;;5115951;28;20232;-61
2020/12/26 04:43:48;;;;;;;11.07;8.50;;;3.00;99.90;;;;;;5115387;28;20744;-62
2020/12/26 04:46:18;;;;;;;11.10;8.77;;;2.90;99.90;;;;;;5115143;28;20204;-61
2020/12/26 04:48:54;;;;;;;10.27;8.07;;;2.90;99.90;;;;;;5114986;28;20560;-61
2020/12/26 04:51:20;;;;;;;9.80;8.07;;;2.90;99.90;;;;;;5115560;28;20211;-62
2020/12/26 04:53:52;;;;;;;10.83;8.90;;;2.90;99.90;;;;;;5115317;28;20363;-61
2020/12/26 04:56:20;;;;;;;10.50;8.33;;;2.90;99.90;;;;;;5115406;28;20375;-61
2020/12/26 04:58:49;;;;;;;11.03;8.27;;;2.90;99.90;;;;;;5115120;28;20238;-61
2020/12/26 05:01:16;;;;;;;11.63;8.37;;;3.00;99.90;;;;;;5116391;28;20208;-61
2020/12/26 05:03:44;;;;;;;10.87;8.37;;;3.00;99.90;;;;;;5115927;28;20228;-61
2020/12/26 05:06:13;;;;;;;11.33;8.47;;;2.90;99.90;;;;;;5116419;28;20203;-61
2020/12/26 05:08:39;;;;;;;12.37;8.07;;;3.00;99.90;;;;;;5116163;28;20724;-61
2020/12/26 05:11:05;;;;;;;11.90;8.80;;;3.00;99.90;;;;;;5116048;28;20203;-61
2020/12/26 05:13:41;;;;;;;11.37;8.50;;;3.00;99.90;;;;;;5114829;28;20615;-61
2020/12/26 05:16:09;;;;;;;11.33;8.37;;;3.10;99.90;;;;;;5114937;28;20222;-61
2020/12/26 05:18:37;;;;;;;12.73;8.40;;;3.10;99.90;;;;;;5115014;28;20204;-61
2020/12/26 05:21:03;;;;;;;12.77;9.13;;;3.20;99.90;;;;;;5114989;28;20207;-61
2020/12/26 05:23:29;;;;;;;9.97;8.33;;;3.30;99.90;;;;;;5114717;28;20721;-61
2020/12/26 05:25:55;;;;;;;12.80;9.10;;;3.30;99.90;;;;;;5114788;28;20204;-61
2020/12/26 05:28:25;;;;;;;11.63;9.00;;;3.30;99.90;;;;;;5114567;28;20203;-61
2020/12/26 05:30:53;;;;;;;13.63;8.57;;;3.20;99.90;;;;;;5114866;28;20303;-61
2020/12/26 05:33:20;;;;;;;12.67;8.33;;;3.20;99.90;;;;;;5114693;28;20220;-61
2020/12/26 05:35:47;;;;;;;11.33;8.10;;;3.30;99.90;;;;;;5114051;28;20199;-61
2020/12/26 05:38:18;;;;;;;13.83;8.90;;;3.40;99.90;;;;;;5114495;28;20207;-61
2020/12/26 05:40:49;;;;;;;11.83;8.87;;;3.50;99.90;;;;;;5114191;28;20204;-60
2020/12/26 05:43:16;;;;;;;11.43;8.70;;;3.40;99.90;;;;;;5114325;28;20290;-61
2020/12/26 05:45:44;;;;;;;11.40;8.17;;;3.40;99.90;;;;;;5113530;28;20199;-62
2020/12/26 05:48:13;;;;;;;12.40;8.93;;;3.50;99.90;;;;;;5113644;28;20654;-61
2020/12/26 05:50:40;;;;;;;14.23;8.70;;;3.60;99.90;;;;;;5114136;28;20277;-61
2020/12/26 05:53:08;;;;;;;14.43;9.13;;;3.70;99.90;;;;;;5113621;28;20219;-61
2020/12/26 05:55:38;;;;;;;14.67;9.17;;;3.80;99.90;;;;;;5113777;28;20208;-61
2020/12/26 05:58:05;;;;;;;9.83;8.67;;;3.80;99.90;;;;;;5113381;28;20203;-61
2020/12/26 06:00:35;;;;;;;12.60;9.70;;;3.70;99.90;;;;;;5113827;28;20207;-61
2020/12/26 06:03:22;;;;;;;13.87;9.53;;;3.70;99.90;;;;;;5113821;28;20224;-61
2020/12/26 06:05:49;;;;;;;13.10;9.57;;;3.70;99.90;;;;;;5113686;28;20200;-61
2020/12/26 06:08:16;;;;;;;14.10;9.63;;;3.80;99.90;;;;;;5113772;28;20195;-62
2020/12/26 06:10:51;;;;;;;13.17;8.60;;;3.80;99.90;;;;;;5114256;28;20700;-61
2020/12/26 06:13:18;;;;;;;13.10;9.10;;;3.90;99.90;;;;;;5113842;28;20222;-61
2020/12/26 06:15:50;;;;;;;12.37;8.57;;;3.90;99.90;;;;;;5113620;28;20671;-61
2020/12/26 06:18:19;;;;;;;12.23;9.10;;;3.80;99.90;;;;;;5113094;28;20232;-61
2020/12/26 06:20:46;;;;;;;12.73;9.17;;;3.70;99.90;;;;;;5113767;28;20204;-61
2020/12/26 06:23:17;;;;;;;14.17;9.67;;;3.50;99.90;;;;;;5113747;28;20695;-61
2020/12/26 06:25:44;;;;;;;14.50;9.33;;;3.40;99.90;;;;;;5112965;28;20617;-61
2020/12/26 06:28:25;;;;;;;14.43;9.80;;;3.30;99.90;;;;;;5112885;28;20238;-61
2020/12/26 06:30:53;;;;;;;15.30;9.30;;;3.10;99.90;;;;;;5113201;28;20199;-61
2020/12/26 06:33:24;;;;;;;12.80;9.17;;;2.80;99.90;;;;;;5113200;28;20375;-62
2020/12/26 06:35:51;;;;;;;15.70;10.60;;;2.60;99.90;;;;;;5113528;28;20231;-61
2020/12/26 06:38:19;;;;;;;13.67;10.33;;;2.40;99.90;;;;;;5112123;28;20208;-61
2020/12/26 06:40:57;;;;;;;14.70;9.90;;;2.20;99.90;;;;;;5113230;28;20203;-61
2020/12/26 06:43:45;;;;;;;12.80;9.63;;;2.10;99.90;;;;;;5112776;28;20710;-61
2020/12/26 06:46:40;;;;;;;14.53;9.63;;;1.80;99.90;;;;;;5113211;28;20210;-61
2020/12/26 06:49:27;;;;;;;15.00;10.30;;;1.60;99.90;;;;;;5112585;28;20199;-61
2020/12/26 06:51:54;;;;;;;14.50;9.73;;;1.50;99.90;;;;;;5112901;28;20235;-61
2020/12/26 06:54:48;;;;;;;13.50;9.87;;;1.50;99.90;;;;;;5113153;28;20260;-61
2020/12/26 06:57:37;;;;;;;13.70;9.63;;;1.70;99.90;;;;;;5067182;28;20203;-61
2020/12/26 07:00:28;;;;;;;15.00;10.40;;;1.80;99.90;;;;;;5115133;28;20214;-61
2020/12/26 07:03:16;;;;;;;18.40;11.80;;;1.90;99.90;;;;;;5113944;28;20235;-61
2020/12/26 07:05:43;;;;;;;22.37;12.13;;;2.00;99.90;;;;;;5114716;28;20211;-61
2020/12/26 07:08:20;;;;;;;21.37;12.73;;;2.10;99.90;;;;;;5114737;28;20208;-61
2020/12/26 07:10:47;;;;;;;21.40;12.03;;;2.30;99.90;;;;;;5115234;28;20678;-61
2020/12/26 07:13:52;;;;;;;21.40;13.03;;;2.50;99.90;;;;;;5114676;28;20232;-61
2020/12/26 07:16:37;;;;;;;21.77;13.13;;;2.60;99.90;;;;;;5100108;28;20651;-61
2020/12/26 07:19:38;;;;;;;21.60;12.87;;;2.80;99.90;;;;;;5115534;28;20207;-61
2020/12/26 07:22:06;;;;;;;19.90;12.97;;;3.10;99.90;;;;;;5115192;28;20263;-61
2020/12/26 07:24:38;;;;;;;22.63;14.00;;;3.20;99.90;;;;;;5115804;28;20583;-61
2020/12/26 07:27:16;;;;;;;17.70;11.67;;;3.40;99.90;;;;;;5114606;28;20290;-60
2020/12/26 07:29:54;;;;;;;20.77;11.30;;;3.40;99.90;;;;;;5114430;28;20214;-61
2020/12/26 07:32:51;;;;;;;15.53;11.20;;;3.50;99.90;;;;;;5114815;28;20235;-61
2020/12/26 07:35:30;;;;;;;15.77;11.00;;;3.50;99.90;;;;;;5108973;28;20207;-61
2020/12/26 07:37:59;;;;;;;14.97;10.30;;;3.50;99.90;;;;;;5114792;28;20701;-61
2020/12/26 07:40:27;;;;;;;16.90;11.27;;;3.40;99.90;;;;;;5115635;28;20206;-61
2020/12/26 07:42:54;;;;;;;18.70;11.40;;;3.40;99.90;;;;;;5115869;28;20251;-61
2020/12/26 07:45:21;;;;;;;20.00;11.47;;;3.50;99.90;;;;;;5114011;28;20394;-61
2020/12/26 07:47:49;;;;;;;15.30;11.53;;;3.60;99.90;;;;;;5113479;28;20214;-61
2020/12/26 07:50:17;;;;;;;18.47;11.23;;;3.80;99.90;;;;;;5113461;28;20235;-61
2020/12/26 07:52:47;;;;;;;17.23;10.70;;;3.80;99.90;;;;;;5115037;28;20242;-61
2020/12/26 07:55:14;;;;;;;17.30;11.43;;;3.80;99.90;;;;;;5112854;28;20667;-61
2020/12/26 07:57:41;;;;;;;19.80;12.00;;;4.00;99.90;;;;;;5112614;28;20210;-61
2020/12/26 08:00:08;;;;;;;17.63;11.77;;;4.00;99.90;;;;;;5113624;28;20207;-61
2020/12/26 08:02:34;;;;;;;16.77;10.87;;;4.20;99.90;;;;;;5113922;28;20227;-61
2020/12/26 08:05:01;;;;;;;15.93;10.73;;;4.30;99.90;;;;;;5112975;28;20276;-61
2020/12/26 08:07:32;;;;;;;18.37;11.97;;;4.20;99.90;;;;;;5112791;28;20207;-61
2020/12/26 08:09:59;;;;;;;23.33;14.70;;;4.20;99.90;;;;;;5112730;28;20211;-61
2020/12/26 08:12:26;;;;;;;20.37;11.43;;;4.30;99.90;;;;;;5112208;28;20231;-61
2020/12/26 08:15:00;;;;;;;18.43;11.77;;;4.30;99.90;;;;;;5112119;28;20203;-61
2020/12/26 08:17:27;;;;;;;17.33;10.73;;;4.20;99.90;;;;;;5112864;28;20206;-61
2020/12/26 08:19:58;;;;;;;18.23;10.27;;;4.30;99.90;;;;;;5112224;28;20460;-61
2020/12/26 08:22:25;;;;;;;19.57;12.10;;;4.30;99.90;;;;;;5112818;28;20259;-61
2020/12/26 08:25:03;;;;;;;18.63;11.67;;;4.30;99.90;;;;;;5112484;28;20771;-61
2020/12/26 08:27:30;;;;;;;18.97;11.60;;;4.30;99.90;;;;;;5112212;28;20207;-58
2020/12/26 08:29:58;;;;;;;17.77;12.30;;;4.20;99.90;;;;;;5112528;28;20839;-58
2020/12/26 08:32:27;;;;;;;18.07;10.40;;;4.20;99.90;;;;;;5112270;28;20223;-58
2020/12/26 08:34:59;;;;;;;15.43;10.80;;;4.20;99.90;;;;;;5112267;28;20758;-59
2020/12/26 08:37:29;;;;;;;15.83;10.13;;;4.30;99.90;;;;;;5112857;28;20751;-58
2020/12/26 08:39:58;;;;;;;17.00;10.40;;;4.60;99.90;;;;;;5112372;28;20260;-56
2020/12/26 08:42:26;;;;;;;18.03;10.20;;;4.70;99.90;;;;;;5112482;28;20223;-58
2020/12/26 08:44:52;;;;;;;14.30;9.33;;;4.80;99.90;;;;;;5112954;28;20686;-58
2020/12/26 08:47:28;;;;;;;16.77;9.33;;;4.90;99.90;;;;;;5112464;28;20733;-57
2020/12/26 08:49:54;;;;;;;12.93;9.40;;;4.80;99.90;;;;;;5111894;28;20203;-57
2020/12/26 08:52:24;;;;;;;15.50;9.87;;;4.90;99.90;;;;;;5112711;28;20219;-57
2020/12/26 08:55:04;;;;;;;13.40;9.37;;;4.80;99.90;;;;;;5111820;28;20249;-57
2020/12/26 08:57:30;;;;;;;15.43;10.40;;;4.90;99.90;;;;;;5111526;28;20207;-57
2020/12/26 09:00:15;;;;;;;14.03;10.07;;;4.90;99.90;;;;;;5111282;28;20215;-57
2020/12/26 09:02:46;;;;;;;15.60;9.60;;;5.00;99.90;;;;;;5114920;28;20223;-57
2020/12/26 09:05:24;;;;;;;18.63;10.57;;;5.00;99.90;;;;;;5115090;28;20223;-57
2020/12/26 09:08:10;;;;;;;18.23;11.03;;;5.20;99.90;;;;;;5114794;28;20650;-58
2020/12/26 09:10:37;;;;;;;16.10;9.27;;;5.40;99.90;;;;;;5114996;28;20227;-57
2020/12/26 09:13:06;;;;;;;13.10;9.10;;;5.60;99.90;;;;;;5130642;22;20837;-57
2020/12/26 09:16:04;;;;;;;16.23;10.60;;;5.70;99.90;;;;;;5093728;28;20580;-57
2020/12/26 09:18:39;;;;;;;15.23;8.90;;;5.80;99.90;;;;;;5030455;28;20807;-56
2020/12/26 09:21:06;;;;;;;14.53;9.00;;;5.90;99.90;;;;;;5083160;28;20207;-57
2020/12/26 09:23:35;;;;;;;10.77;8.53;;;6.00;99.90;;;;;;5093018;28;20235;-57
2020/12/26 09:26:12;;;;;;;14.10;8.60;;;6.10;99.90;;;;;;5093560;28;20207;-57
2020/12/26 09:28:44;;;;;;;10.83;7.77;;;6.10;99.90;;;;;;5093100;28;20687;-57
2020/12/26 09:31:11;;;;;;;12.17;8.53;;;6.20;99.90;;;;;;5093356;28;20261;-58
2020/12/26 09:33:38;;;;;;;14.53;8.97;;;6.20;99.90;;;;;;5092629;28;20644;-58
2020/12/26 09:36:04;;;;;;;14.70;9.40;;;6.10;99.90;;;;;;5093014;28;20204;-56
2020/12/26 09:38:30;;;;;;;13.43;8.13;;;6.10;99.90;;;;;;5093041;28;20208;-56
2020/12/26 09:40:57;;;;;;;14.97;8.57;;;6.00;99.90;;;;;;5093211;28;20204;-56
2020/12/26 09:43:23;;;;;;;12.10;7.50;;;6.10;99.90;;;;;;5092331;28;20581;-64
2020/12/26 09:45:50;;;;;;;10.93;8.20;;;6.10;99.90;;;;;;5092901;28;20219;-61
2020/12/26 09:48:16;;;;;;;13.27;8.30;;;6.30;99.90;;;;;;5092729;28;20740;-62
2020/12/26 09:50:43;;;;;;;11.47;7.90;;;6.60;99.90;;;;;;5093396;28;20204;-64
2020/12/26 09:53:09;;;;;;;9.37;6.87;;;6.80;99.90;;;;;;5093252;28;20228;-62
2020/12/26 09:55:35;;;;;;;11.43;6.67;;;7.00;99.90;;;;;;5093200;28;20591;-62
2020/12/26 09:58:01;;;;;;;13.43;7.90;;;7.10;99.90;;;;;;5092666;28;20200;-63
2020/12/26 10:00:28;;;;;;;12.40;7.83;;;7.30;99.90;;;;;;5093035;28;20206;-62
2020/12/26 10:02:54;;;;;;;10.63;6.93;;;7.40;99.90;;;;;;5092384;28;20437;-62
2020/12/26 10:05:20;;;;;;;10.23;6.90;;;7.50;99.90;;;;;;5092001;28;20232;-62
2020/12/26 10:07:47;;;;;;;9.43;7.17;;;7.60;99.90;;;;;;5092515;28;20227;-63
2020/12/26 10:10:13;;;;;;;10.43;7.13;;;7.70;99.90;;;;;;5092797;28;20208;-63
2020/12/26 10:12:39;;;;;;;8.27;6.50;;;7.80;99.90;;;;;;5092208;28;20232;-62
2020/12/26 10:15:05;;;;;;;11.00;8.60;;;7.90;99.90;;;;;;5092065;28;20204;-62
2020/12/26 10:17:32;;;;;;;12.73;8.77;;;7.80;99.90;;;;;;5092158;28;20296;-63
2020/12/26 10:19:58;;;;;;;8.53;6.60;;;7.90;99.90;;;;;;5091609;28;20695;-62
2020/12/26 10:22:24;;;;;;;9.63;6.87;;;7.90;99.90;;;;;;5092009;28;20577;-62
2020/12/26 10:24:51;;;;;;;11.80;7.87;;;8.00;99.90;;;;;;5091881;28;20228;-62
2020/12/26 10:27:17;;;;;;;12.97;7.60;;;8.10;99.90;;;;;;5092161;28;20215;-64
2020/12/26 10:29:43;;;;;;;12.37;8.40;;;8.10;99.90;;;;;;5092390;28;20546;-62
2020/12/26 10:32:10;;;;;;;9.47;6.67;;;8.10;99.90;;;;;;5091837;28;20212;-63
2020/12/26 10:34:37;;;;;;;11.63;7.23;;;8.10;99.90;;;;;;5091502;28;20668;-63
2020/12/26 10:37:03;;;;;;;11.23;6.87;;;8.20;99.90;;;;;;5092102;28;20250;-63
2020/12/26 10:39:29;;;;;;;9.57;6.90;;;8.20;99.90;;;;;;5091735;28;20212;-62
2020/12/26 10:41:56;;;;;;;8.47;6.90;;;8.30;99.90;;;;;;5091775;28;20201;-63
2020/12/26 10:44:22;;;;;;;9.00;6.97;;;8.40;99.90;;;;;;5091013;28;20236;-64
2020/12/26 10:46:48;;;;;;;9.70;7.37;;;8.30;99.90;;;;;;5091596;28;20204;-63
2020/12/26 10:49:15;;;;;;;9.70;6.87;;;8.40;99.90;;;;;;5091544;28;20552;-63
2020/12/26 10:51:41;;;;;;;11.43;6.67;;;8.40;99.80;;;;;;5092256;28;20204;-64
2020/12/26 10:54:07;;;;;;;10.17;6.93;;;8.50;99.60;;;;;;5091871;28;20216;-64
2020/12/26 10:56:33;;;;;;;9.80;6.63;;;8.50;99.20;;;;;;5092020;28;20636;-63
2020/12/26 10:59:03;;;;;;;9.07;6.77;;;8.60;99.40;;;;;;5092159;28;20204;-62
2020/12/26 11:01:30;;;;;;;30.47;18.57;;;8.60;99.30;;;;;;5091912;28;20204;-63
2020/12/26 11:03:56;;;;;;;10.13;6.77;;;8.70;99.30;;;;;;5091700;28;20232;-62
2020/12/26 11:06:22;;;;;;;8.30;5.83;;;8.80;99.30;;;;;;5092319;28;20208;-62
2020/12/26 11:08:49;;;;;;;9.70;6.80;;;8.80;98.80;;;;;;5091585;28;20265;-62
2020/12/26 11:11:15;;;;;;;12.07;6.30;;;8.80;98.60;;;;;;5091819;28;20211;-61
2020/12/26 11:13:41;;;;;;;8.37;6.43;;;8.80;98.90;;;;;;5091029;28;20280;-65
2020/12/26 11:16:13;;;;;;;9.67;6.73;;;8.80;98.70;;;;;;5091678;28;20208;-62
2020/12/26 11:18:40;;;;;;;10.37;6.67;;;8.90;98.70;;;;;;5091160;28;20212;-62
2020/12/26 11:21:06;;;;;;;10.23;6.80;;;8.90;98.40;;;;;;5091442;28;20254;-63
2020/12/26 11:23:32;;;;;;;8.93;6.10;;;8.80;98.50;;;;;;5090539;28;20235;-63
2020/12/26 11:25:58;;;;;;;7.60;6.23;;;8.80;98.20;;;;;;5091206;28;20215;-62
2020/12/26 11:28:25;;;;;;;9.83;6.50;;;8.70;98.00;;;;;;5090953;28;20211;-66
2020/12/26 11:30:51;;;;;;;8.73;6.50;;;8.60;98.30;;;;;;5091401;28;20204;-61
2020/12/26 11:33:18;;;;;;;8.97;6.13;;;8.60;98.50;;;;;;5091489;28;20253;-63
2020/12/26 11:35:44;;;;;;;8.90;6.23;;;8.70;98.50;;;;;;5090943;28;20257;-62
2020/12/26 11:38:10;;;;;;;9.43;6.87;;;8.60;98.50;;;;;;5090597;28;20208;-62
2020/12/26 11:40:36;;;;;;;9.70;6.67;;;8.70;98.20;;;;;;5090591;28;20201;-65
2020/12/26 11:43:04;;;;;;;9.03;5.77;;;8.70;98.00;;;;;;5091109;28;20224;-64
2020/12/26 11:45:30;;;;;;;8.83;5.93;;;8.60;97.90;;;;;;5090671;28;20231;-63
2020/12/26 11:47:56;;;;;;;8.10;5.50;;;8.50;98.00;;;;;;5090839;28;20216;-63
2020/12/26 11:50:23;;;;;;;11.40;8.13;;;8.30;98.20;;;;;;5090760;28;20203;-62
2020/12/26 11:52:49;;;;;;;7.73;6.07;;;8.20;98.30;;;;;;5090413;28;20231;-62
2020/12/26 11:55:16;;;;;;;8.93;6.27;;;8.10;98.60;;;;;;5090142;28;20573;-62
2020/12/26 11:57:42;;;;;;;7.50;5.83;;;8.10;98.80;;;;;;5090365;28;20200;-63
2020/12/26 12:00:08;;;;;;;8.77;6.17;;;8.20;98.70;;;;;;5090822;28;20215;-65
2020/12/26 12:02:35;;;;;;;8.40;6.00;;;8.20;98.30;;;;;;5090575;28;20220;-62
2020/12/26 12:05:01;;;;;;;9.40;7.20;;;8.10;98.40;;;;;;5090068;28;20616;-62
2020/12/26 12:07:28;;;;;;;6.83;5.20;;;8.20;98.40;;;;;;5090646;28;20215;-62
2020/12/26 12:09:54;;;;;;;9.87;5.93;;;8.30;98.30;;;;;;5090153;28;20216;-64
2020/12/26 12:12:20;;;;;;;9.23;6.93;;;8.30;98.50;;;;;;5090225;28;20241;-63
2020/12/26 12:14:47;;;;;;;15.00;8.40;;;8.40;98.50;;;;;;5090425;28;20622;-64
2020/12/26 12:17:13;;;;;;;9.33;6.50;;;8.50;98.40;;;;;;5090798;28;20211;-63
2020/12/26 12:19:39;;;;;;;11.00;7.73;;;8.60;97.90;;;;;;5090376;28;20258;-63
2020/12/26 12:22:05;;;;;;;17.90;12.03;;;8.80;98.00;;;;;;5090278;28;20200;-63
2020/12/26 12:24:32;;;;;;;8.77;5.80;;;8.80;97.40;;;;;;5089826;28;20238;-61
2020/12/26 12:26:58;;;;;;;13.07;8.67;;;8.90;97.40;;;;;;5090253;28;20204;-63
2020/12/26 12:29:25;;;;;;;11.03;8.17;;;9.00;97.40;;;;;;5090308;28;20211;-65
2020/12/26 12:31:51;;;;;;;8.30;5.60;;;9.00;97.00;;;;;;5090383;28;20200;-63
2020/12/26 12:34:17;;;;;;;6.57;5.50;;;9.10;97.00;;;;;;5089825;28;20281;-63
2020/12/26 12:36:43;;;;;;;9.10;5.67;;;9.10;96.90;;;;;;5093386;28;20223;-63
2020/12/26 12:39:10;;;;;;;8.27;5.90;;;9.00;97.00;;;;;;5093954;28;20208;-63
2020/12/26 12:41:37;;;;;;;8.03;5.93;;;9.00;97.00;;;;;;5094299;28;20200;-62
2020/12/26 12:44:03;;;;;;;7.93;5.20;;;9.00;97.00;;;;;;5093838;28;20301;-63
2020/12/26 12:46:30;;;;;;;10.90;5.93;;;9.00;97.10;;;;;;5094265;28;20680;-61
2020/12/26 12:48:56;;;;;;;9.00;5.30;;;9.00;97.30;;;;;;5095111;28;20227;-63
2020/12/26 12:51:27;;;;;;;10.30;5.53;;;9.00;97.20;;;;;;5094971;28;20215;-62